sensor_id;sensor_type;location;lat;lon;timestamp;temperature;humidity
22940;DHT22;11636;52.086;5.090;2023-03-03T00:00:34;2.10;99.90
22940;DHT22;11636;52.086;5.090;2023-03-03T00:03:05;2.10;99.90
22940;DHT22;11636;52.086;5.090;2023-03-03T00:05:39;2.00;99.90
22940;DHT22;11636;52.086;5.090;2023-03-03T00:08:12;2.00;99.90
22940;DHT22;11636;52.086;5.090;2023-03-03T00:10:39;2.00;99.90
22940;DHT22;11636;52.086;5.090;2023-03-03T00:13:21;2.00;99.90
22940;DHT22;11636;52.086;5.090;2023-03-03T00:19:17;2.00;99.90
22940;DHT22;11636;52.086;5.090;2023-03-03T00:21:52;2.00;99.90
22940;DHT22;11636;52.086;5.090;2023-03-03T00:24:38;2.00;99.90
22940;DHT22;11636;52.086;5.090;2023-03-03T00:27:30;1.90;99.90
22940;DHT22;11636;52.086;5.090;2023-03-03T00:30:17;1.90;99.90
22940;DHT22;11636;52.086;5.090;2023-03-03T00:32:59;1.90;99.90
22940;DHT22;11636;52.086;5.090;2023-03-03T00:35:32;1.90;99.90
22940;DHT22;11636;52.086;5.090;2023-03-03T00:38:16;1.90;99.90
22940;DHT22;11636;52.086;5.090;2023-03-03T00:40:44;1.90;99.90
22940;DHT22;11636;52.086;5.090;2023-03-03T00:43:23;1.80;99.90
22940;DHT22;11636;52.086;5.090;2023-03-03T00:45:57;1.80;99.90
22940;DHT22;11636;52.086;5.090;2023-03-03T00:53:42;1.80;99.90
22940;DHT22;11636;52.086;5.090;2023-03-03T00:56:15;1.80;99.90
22940;DHT22;11636;52.086;5.090;2023-03-03T00:58:42;1.80;99.90
22940;DHT22;11636;52.086;5.090;2023-03-03T01:01:22;1.80;99.90
22940;DHT22;11636;52.086;5.090;2023-03-03T01:03:51;1.80;99.90
22940;DHT22;11636;52.086;5.090;2023-03-03T01:06:24;1.80;99.90
22940;DHT22;11636;52.086;5.090;2023-03-03T01:08:51;1.80;99.90
22940;DHT22;11636;52.086;5.090;2023-03-03T01:11:25;1.70;99.90
22940;DHT22;11636;52.086;5.090;2023-03-03T01:13:55;1.80;99.90
22940;DHT22;11636;52.086;5.090;2023-03-03T01:16:28;1.70;99.90
22940;DHT22;11636;52.086;5.090;2023-03-03T01:18:55;1.70;99.90
22940;DHT22;11636;52.086;5.090;2023-03-03T01:21:28;1.70;99.90
22940;DHT22;11636;52.086;5.090;2023-03-03T01:23:55;1.70;99.90
22940;DHT22;11636;52.086;5.090;2023-03-03T01:26:28;1.70;99.90
22940;DHT22;11636;52.086;5.090;2023-03-03T01:28:56;1.60;99.90
22940;DHT22;11636;52.086;5.090;2023-03-03T01:31:29;1.60;99.90
22940;DHT22;11636;52.086;5.090;2023-03-03T01:33:56;1.60;99.90
22940;DHT22;11636;52.086;5.090;2023-03-03T01:36:29;1.60;99.90
22940;DHT22;11636;52.086;5.090;2023-03-03T01:38:56;1.60;99.90
22940;DHT22;11636;52.086;5.090;2023-03-03T01:41:30;1.60;99.90
22940;DHT22;11636;52.086;5.090;2023-03-03T01:44:01;1.50;99.90
22940;DHT22;11636;52.086;5.090;2023-03-03T01:49:27;1.50;99.90
22940;DHT22;11636;52.086;5.090;2023-03-03T01:52:04;1.50;99.90
22940;DHT22;11636;52.086;5.090;2023-03-03T01:54:40;1.40;99.90
22940;DHT22;11636;52.086;5.090;2023-03-03T01:57:24;1.40;99.90
22940;DHT22;11636;52.086;5.090;2023-03-03T02:00:01;1.30;99.90
22940;DHT22;11636;52.086;5.090;2023-03-03T02:02:35;1.30;99.90
22940;DHT22;11636;52.086;5.090;2023-03-03T02:05:02;1.30;99.90
22940;DHT22;11636;52.086;5.090;2023-03-03T02:07:36;1.30;99.90
22940;DHT22;11636;52.086;5.090;2023-03-03T02:10:06;1.20;99.90
22940;DHT22;11636;52.086;5.090;2023-03-03T02:12:59;1.20;99.90
22940;DHT22;11636;52.086;5.090;2023-03-03T02:15:31;1.20;99.90
22940;DHT22;11636;52.086;5.090;2023-03-03T02:18:10;1.20;99.90
22940;DHT22;11636;52.086;5.090;2023-03-03T02:26:09;1.20;99.90
22940;DHT22;11636;52.086;5.090;2023-03-03T02:28:43;1.20;99.90
22940;DHT22;11636;52.086;5.090;2023-03-03T02:31:14;1.10;99.90
22940;DHT22;11636;52.086;5.090;2023-03-03T02:33:49;1.10;99.90
22940;DHT22;11636;52.086;5.090;2023-03-03T02:36:23;1.10;99.90
22940;DHT22;11636;52.086;5.090;2023-03-03T02:39:19;1.20;99.90
22940;DHT22;11636;52.086;5.090;2023-03-03T02:42:07;1.20;99.90
22940;DHT22;11636;52.086;5.090;2023-03-03T02:44:41;1.30;99.90
22940;DHT22;11636;52.086;5.090;2023-03-03T02:47:08;1.30;99.90
22940;DHT22;11636;52.086;5.090;2023-03-03T02:49:42;1.40;99.90
22940;DHT22;11636;52.086;5.090;2023-03-03T02:52:13;1.40;99.90
22940;DHT22;11636;52.086;5.090;2023-03-03T02:54:46;1.50;99.90
22940;DHT22;11636;52.086;5.090;2023-03-03T02:57:13;1.50;99.90
22940;DHT22;11636;52.086;5.090;2023-03-03T02:59:40;1.50;99.90
22940;DHT22;11636;52.086;5.090;2023-03-03T03:02:13;1.60;99.90
22940;DHT22;11636;52.086;5.090;2023-03-03T03:04:46;1.60;99.90
22940;DHT22;11636;52.086;5.090;2023-03-03T03:07:13;1.60;99.90
22940;DHT22;11636;52.086;5.090;2023-03-03T03:09:46;1.60;99.90
22940;DHT22;11636;52.086;5.090;2023-03-03T03:12:13;1.60;99.90
22940;DHT22;11636;52.086;5.090;2023-03-03T03:14:47;1.60;99.90
22940;DHT22;11636;52.086;5.090;2023-03-03T03:17:14;1.60;99.90
22940;DHT22;11636;52.086;5.090;2023-03-03T03:19:47;1.60;99.90
22940;DHT22;11636;52.086;5.090;2023-03-03T03:22:14;1.60;99.90
22940;DHT22;11636;52.086;5.090;2023-03-03T03:24:41;1.60;99.90
22940;DHT22;11636;52.086;5.090;2023-03-03T03:27:14;1.60;99.90
22940;DHT22;11636;52.086;5.090;2023-03-03T03:29:41;1.60;99.90
22940;DHT22;11636;52.086;5.090;2023-03-03T03:32:16;1.60;99.90
22940;DHT22;11636;52.086;5.090;2023-03-03T03:34:50;1.60;99.90
22940;DHT22;11636;52.086;5.090;2023-03-03T03:37:22;1.60;99.90
22940;DHT22;11636;52.086;5.090;2023-03-03T03:39:49;1.60;99.90
22940;DHT22;11636;52.086;5.090;2023-03-03T03:42:24;1.70;99.90
22940;DHT22;11636;52.086;5.090;2023-03-03T03:44:51;1.70;99.90
22940;DHT22;11636;52.086;5.090;2023-03-03T03:47:24;1.70;99.90
22940;DHT22;11636;52.086;5.090;2023-03-03T03:49:51;1.70;99.90
22940;DHT22;11636;52.086;5.090;2023-03-03T03:52:34;1.70;99.90
22940;DHT22;11636;52.086;5.090;2023-03-03T03:55:01;1.80;99.90
22940;DHT22;11636;52.086;5.090;2023-03-03T03:57:34;1.70;99.90
22940;DHT22;11636;52.086;5.090;2023-03-03T04:00:01;1.70;99.90
22940;DHT22;11636;52.086;5.090;2023-03-03T04:02:35;1.70;99.90
22940;DHT22;11636;52.086;5.090;2023-03-03T04:05:03;1.70;99.90
22940;DHT22;11636;52.086;5.090;2023-03-03T04:07:36;1.80;99.90
22940;DHT22;11636;52.086;5.090;2023-03-03T04:10:04;1.70;99.90
22940;DHT22;11636;52.086;5.090;2023-03-03T04:12:37;1.80;99.90
22940;DHT22;11636;52.086;5.090;2023-03-03T04:15:10;1.80;99.90
22940;DHT22;11636;52.086;5.090;2023-03-03T04:17:43;1.80;99.90
22940;DHT22;11636;52.086;5.090;2023-03-03T04:20:12;1.80;99.90
22940;DHT22;11636;52.086;5.090;2023-03-03T04:22:46;1.80;99.90
22940;DHT22;11636;52.086;5.090;2023-03-03T04:25:15;1.80;99.90
22940;DHT22;11636;52.086;5.090;2023-03-03T04:27:55;1.80;99.90
22940;DHT22;11636;52.086;5.090;2023-03-03T04:30:22;1.80;99.90
22940;DHT22;11636;52.086;5.090;2023-03-03T04:32:55;1.90;99.90
22940;DHT22;11636;52.086;5.090;2023-03-03T04:35:22;1.90;99.90
22940;DHT22;11636;52.086;5.090;2023-03-03T04:37:56;1.90;99.90
22940;DHT22;11636;52.086;5.090;2023-03-03T04:40:29;1.90;99.90
22940;DHT22;11636;52.086;5.090;2023-03-03T04:43:02;2.00;99.90
22940;DHT22;11636;52.086;5.090;2023-03-03T04:45:36;2.00;99.90
22940;DHT22;11636;52.086;5.090;2023-03-03T04:48:03;2.00;99.90
22940;DHT22;11636;52.086;5.090;2023-03-03T04:50:37;2.00;99.90
22940;DHT22;11636;52.086;5.090;2023-03-03T04:53:10;2.00;99.90
22940;DHT22;11636;52.086;5.090;2023-03-03T04:55:43;2.00;99.90
22940;DHT22;11636;52.086;5.090;2023-03-03T04:58:20;2.00;99.90
22940;DHT22;11636;52.086;5.090;2023-03-03T05:00:53;2.00;99.90
22940;DHT22;11636;52.086;5.090;2023-03-03T05:03:27;2.00;99.90
22940;DHT22;11636;52.086;5.090;2023-03-03T05:05:54;2.00;99.90
22940;DHT22;11636;52.086;5.090;2023-03-03T05:08:26;2.00;99.90
22940;DHT22;11636;52.086;5.090;2023-03-03T05:10:54;2.00;99.90
22940;DHT22;11636;52.086;5.090;2023-03-03T05:13:27;1.90;99.90
22940;DHT22;11636;52.086;5.090;2023-03-03T05:15:55;2.00;99.90
22940;DHT22;11636;52.086;5.090;2023-03-03T05:18:29;2.00;99.90
22940;DHT22;11636;52.086;5.090;2023-03-03T05:20:55;2.00;99.90
22940;DHT22;11636;52.086;5.090;2023-03-03T05:23:22;2.00;99.90
22940;DHT22;11636;52.086;5.090;2023-03-03T05:25:56;2.00;99.90
22940;DHT22;11636;52.086;5.090;2023-03-03T05:28:23;2.00;99.90
22940;DHT22;11636;52.086;5.090;2023-03-03T05:30:56;2.10;99.90
22940;DHT22;11636;52.086;5.090;2023-03-03T05:33:22;2.10;99.90
22940;DHT22;11636;52.086;5.090;2023-03-03T05:35:56;2.10;99.90
22940;DHT22;11636;52.086;5.090;2023-03-03T05:38:24;2.10;99.90
22940;DHT22;11636;52.086;5.090;2023-03-03T05:40:58;2.10;99.90
22940;DHT22;11636;52.086;5.090;2023-03-03T05:43:24;2.10;99.90
22940;DHT22;11636;52.086;5.090;2023-03-03T05:45:58;2.20;99.90
22940;DHT22;11636;52.086;5.090;2023-03-03T05:48:25;2.20;99.90
22940;DHT22;11636;52.086;5.090;2023-03-03T05:50:59;2.10;99.90
22940;DHT22;11636;52.086;5.090;2023-03-03T05:53:27;2.10;99.90
22940;DHT22;11636;52.086;5.090;2023-03-03T05:56:01;2.20;99.90
22940;DHT22;11636;52.086;5.090;2023-03-03T05:58:28;2.20;99.90
22940;DHT22;11636;52.086;5.090;2023-03-03T06:01:01;2.20;99.90
22940;DHT22;11636;52.086;5.090;2023-03-03T06:03:28;2.10;99.90
22940;DHT22;11636;52.086;5.090;2023-03-03T06:06:01;2.20;99.90
22940;DHT22;11636;52.086;5.090;2023-03-03T06:08:27;2.20;99.90
22940;DHT22;11636;52.086;5.090;2023-03-03T06:11:02;2.20;99.90
22940;DHT22;11636;52.086;5.090;2023-03-03T06:13:29;2.20;99.90
22940;DHT22;11636;52.086;5.090;2023-03-03T06:16:03;2.20;99.90
22940;DHT22;11636;52.086;5.090;2023-03-03T06:18:30;2.20;99.90
22940;DHT22;11636;52.086;5.090;2023-03-03T06:21:04;2.20;99.90
22940;DHT22;11636;52.086;5.090;2023-03-03T06:23:38;2.20;99.90
22940;DHT22;11636;52.086;5.090;2023-03-03T06:26:04;2.20;99.90
22940;DHT22;11636;52.086;5.090;2023-03-03T06:28:45;2.20;99.90
22940;DHT22;11636;52.086;5.090;2023-03-03T06:31:12;2.20;99.90
22940;DHT22;11636;52.086;5.090;2023-03-03T06:33:45;2.20;99.90
22940;DHT22;11636;52.086;5.090;2023-03-03T06:36:12;2.20;99.90
22940;DHT22;11636;52.086;5.090;2023-03-03T06:38:45;2.20;99.90
22940;DHT22;11636;52.086;5.090;2023-03-03T06:41:12;2.20;99.90
22940;DHT22;11636;52.086;5.090;2023-03-03T06:43:46;2.30;99.90
22940;DHT22;11636;52.086;5.090;2023-03-03T06:46:13;2.30;99.90
22940;DHT22;11636;52.086;5.090;2023-03-03T06:48:46;2.30;99.90
22940;DHT22;11636;52.086;5.090;2023-03-03T06:51:26;2.30;99.90
22940;DHT22;11636;52.086;5.090;2023-03-03T06:54:12;2.30;99.90
22940;DHT22;11636;52.086;5.090;2023-03-03T06:56:40;2.40;99.90
22940;DHT22;11636;52.086;5.090;2023-03-03T06:59:16;2.40;99.90
22940;DHT22;11636;52.086;5.090;2023-03-03T07:01:45;2.50;99.90
22940;DHT22;11636;52.086;5.090;2023-03-03T07:06:51;2.50;99.90
22940;DHT22;11636;52.086;5.090;2023-03-03T07:09:27;2.60;99.90
22940;DHT22;11636;52.086;5.090;2023-03-03T07:12:00;2.60;99.90
22940;DHT22;11636;52.086;5.090;2023-03-03T07:14:36;2.60;99.90
22940;DHT22;11636;52.086;5.090;2023-03-03T07:17:15;2.60;99.90
22940;DHT22;11636;52.086;5.090;2023-03-03T07:19:49;2.60;99.90
22940;DHT22;11636;52.086;5.090;2023-03-03T07:22:19;2.70;99.90
22940;DHT22;11636;52.086;5.090;2023-03-03T07:24:57;2.70;99.90
22940;DHT22;11636;52.086;5.090;2023-03-03T07:27:28;2.70;99.90
22940;DHT22;11636;52.086;5.090;2023-03-03T07:30:24;2.70;99.90
22940;DHT22;11636;52.086;5.090;2023-03-03T07:32:53;2.80;99.90
22940;DHT22;11636;52.086;5.090;2023-03-03T07:35:43;2.80;99.90
22940;DHT22;11636;52.086;5.090;2023-03-03T07:40:59;2.90;99.90
22940;DHT22;11636;52.086;5.090;2023-03-03T07:43:36;3.00;99.90
22940;DHT22;11636;52.086;5.090;2023-03-03T07:48:38;3.10;99.90
22940;DHT22;11636;52.086;5.090;2023-03-03T07:51:27;3.10;99.90
22940;DHT22;11636;52.086;5.090;2023-03-03T07:59:48;3.30;99.90
22940;DHT22;11636;52.086;5.090;2023-03-03T08:02:51;3.30;99.90
22940;DHT22;11636;52.086;5.090;2023-03-03T08:05:41;3.40;99.90
22940;DHT22;11636;52.086;5.090;2023-03-03T08:10:54;3.50;99.90
22940;DHT22;11636;52.086;5.090;2023-03-03T08:18:46;3.60;99.90
22940;DHT22;11636;52.086;5.090;2023-03-03T08:21:22;3.70;99.90
22940;DHT22;11636;52.086;5.090;2023-03-03T08:23:49;3.80;99.90
22940;DHT22;11636;52.086;5.090;2023-03-03T08:26:25;3.90;99.90
22940;DHT22;11636;52.086;5.090;2023-03-03T08:28:53;3.90;99.90
22940;DHT22;11636;52.086;5.090;2023-03-03T08:31:26;4.00;99.90
22940;DHT22;11636;52.086;5.090;2023-03-03T08:34:06;4.00;99.90
22940;DHT22;11636;52.086;5.090;2023-03-03T08:36:40;4.10;99.90
22940;DHT22;11636;52.086;5.090;2023-03-03T08:39:07;4.10;99.90
22940;DHT22;11636;52.086;5.090;2023-03-03T08:41:35;4.20;99.90
22940;DHT22;11636;52.086;5.090;2023-03-03T08:44:11;4.30;99.90
22940;DHT22;11636;52.086;5.090;2023-03-03T08:46:37;4.40;99.90
22940;DHT22;11636;52.086;5.090;2023-03-03T08:49:11;4.40;99.90
22940;DHT22;11636;52.086;5.090;2023-03-03T08:51:38;4.50;99.90
22940;DHT22;11636;52.086;5.090;2023-03-03T08:54:06;4.40;99.90
22940;DHT22;11636;52.086;5.090;2023-03-03T08:56:39;4.40;99.90
22940;DHT22;11636;52.086;5.090;2023-03-03T08:59:06;4.50;99.90
22940;DHT22;11636;52.086;5.090;2023-03-03T09:01:33;4.50;99.90
22940;DHT22;11636;52.086;5.090;2023-03-03T09:04:07;4.60;99.90
22940;DHT22;11636;52.086;5.090;2023-03-03T09:06:34;4.70;99.90
22940;DHT22;11636;52.086;5.090;2023-03-03T09:09:04;4.80;99.90
22940;DHT22;11636;52.086;5.090;2023-03-03T09:11:37;4.90;99.90
22940;DHT22;11636;52.086;5.090;2023-03-03T09:14:16;5.00;99.90
22940;DHT22;11636;52.086;5.090;2023-03-03T09:16:51;5.00;99.90
22940;DHT22;11636;52.086;5.090;2023-03-03T09:19:24;5.10;99.90
22940;DHT22;11636;52.086;5.090;2023-03-03T09:22:19;5.20;99.90
22940;DHT22;11636;52.086;5.090;2023-03-03T09:24:48;5.20;99.90
22940;DHT22;11636;52.086;5.090;2023-03-03T09:27:28;5.40;99.90
22940;DHT22;11636;52.086;5.090;2023-03-03T09:32:57;5.60;99.90
22940;DHT22;11636;52.086;5.090;2023-03-03T09:35:37;5.70;99.90
22940;DHT22;11636;52.086;5.090;2023-03-03T09:38:29;5.80;99.90
22940;DHT22;11636;52.086;5.090;2023-03-03T09:45:23;6.10;99.90
22940;DHT22;11636;52.086;5.090;2023-03-03T09:55:41;6.30;99.90
22940;DHT22;11636;52.086;5.090;2023-03-03T10:06:44;5.70;99.90
22940;DHT22;11636;52.086;5.090;2023-03-03T10:17:55;5.70;99.90
22940;DHT22;11636;52.086;5.090;2023-03-03T10:20:50;5.80;99.90
22940;DHT22;11636;52.086;5.090;2023-03-03T10:29:18;6.00;99.90
22940;DHT22;11636;52.086;5.090;2023-03-03T10:35:22;6.20;99.90
22940;DHT22;11636;52.086;5.090;2023-03-03T10:40:48;6.10;99.90
22940;DHT22;11636;52.086;5.090;2023-03-03T10:49:26;6.20;99.90
22940;DHT22;11636;52.086;5.090;2023-03-03T10:52:06;6.50;99.90
22940;DHT22;11636;52.086;5.090;2023-03-03T10:55:25;6.70;99.90
22940;DHT22;11636;52.086;5.090;2023-03-03T10:58:25;7.00;99.90
22940;DHT22;11636;52.086;5.090;2023-03-03T11:01:24;7.20;99.90
22940;DHT22;11636;52.086;5.090;2023-03-03T11:31:56;7.70;99.90
22940;DHT22;11636;52.086;5.090;2023-03-03T11:40:01;8.20;99.90
22940;DHT22;11636;52.086;5.090;2023-03-03T11:42:49;8.50;99.90
22940;DHT22;11636;52.086;5.090;2023-03-03T11:45:33;8.90;99.90
22940;DHT22;11636;52.086;5.090;2023-03-03T11:51:05;9.30;99.90
22940;DHT22;11636;52.086;5.090;2023-03-03T11:56:22;9.40;99.90
22940;DHT22;11636;52.086;5.090;2023-03-03T11:59:16;9.70;99.90
22940;DHT22;11636;52.086;5.090;2023-03-03T12:04:29;10.20;99.90
22940;DHT22;11636;52.086;5.090;2023-03-03T12:19:28;9.40;99.90
22940;DHT22;11636;52.086;5.090;2023-03-03T12:27:46;9.80;99.90
22940;DHT22;11636;52.086;5.090;2023-03-03T12:36:08;9.20;99.90
22940;DHT22;11636;52.086;5.090;2023-03-03T12:47:15;9.00;99.90
22940;DHT22;11636;52.086;5.090;2023-03-03T12:50:13;8.90;99.90
22940;DHT22;11636;52.086;5.090;2023-03-03T12:56:08;8.70;99.90
22940;DHT22;11636;52.086;5.090;2023-03-03T13:10:42;9.80;99.90
22940;DHT22;11636;52.086;5.090;2023-03-03T13:13:36;10.00;99.90
22940;DHT22;11636;52.086;5.090;2023-03-03T13:16:24;10.00;99.90
22940;DHT22;11636;52.086;5.090;2023-03-03T13:19:14;9.80;99.90
22940;DHT22;11636;52.086;5.090;2023-03-03T13:22:01;9.60;99.90
22940;DHT22;11636;52.086;5.090;2023-03-03T13:24:50;9.50;99.90
22940;DHT22;11636;52.086;5.090;2023-03-03T13:27:31;9.20;99.90
22940;DHT22;11636;52.086;5.090;2023-03-03T13:33:26;8.80;99.90
22940;DHT22;11636;52.086;5.090;2023-03-03T13:35:58;8.80;99.90
22940;DHT22;11636;52.086;5.090;2023-03-03T13:38:56;9.40;99.90
22940;DHT22;11636;52.086;5.090;2023-03-03T13:41:28;10.00;99.90
22940;DHT22;11636;52.086;5.090;2023-03-03T13:52:28;10.10;99.90
22940;DHT22;11636;52.086;5.090;2023-03-03T13:57:56;9.80;99.90
22940;DHT22;11636;52.086;5.090;2023-03-03T14:05:56;9.30;99.90
22940;DHT22;11636;52.086;5.090;2023-03-03T14:08:45;9.60;99.90
22940;DHT22;11636;52.086;5.090;2023-03-03T14:20:27;10.40;99.90
22940;DHT22;11636;52.086;5.090;2023-03-03T14:23:09;10.10;99.90
22940;DHT22;11636;52.086;5.090;2023-03-03T14:28:28;9.80;99.90
22940;DHT22;11636;52.086;5.090;2023-03-03T14:30:57;9.80;99.90
22940;DHT22;11636;52.086;5.090;2023-03-03T14:33:30;9.70;99.90
22940;DHT22;11636;52.086;5.090;2023-03-03T14:38:40;9.40;99.90
22940;DHT22;11636;52.086;5.090;2023-03-03T14:41:21;9.30;99.90
22940;DHT22;11636;52.086;5.090;2023-03-03T14:44:23;9.20;99.90
22940;DHT22;11636;52.086;5.090;2023-03-03T14:49:48;9.20;99.90
22940;DHT22;11636;52.086;5.090;2023-03-03T14:52:28;9.10;99.90
22940;DHT22;11636;52.086;5.090;2023-03-03T14:55:35;9.10;99.90
22940;DHT22;11636;52.086;5.090;2023-03-03T15:06:45;8.90;99.90
22940;DHT22;11636;52.086;5.090;2023-03-03T15:09:33;8.80;99.90
22940;DHT22;11636;52.086;5.090;2023-03-03T15:12:35;8.80;99.90
22940;DHT22;11636;52.086;5.090;2023-03-03T15:15:20;8.80;99.90
22940;DHT22;11636;52.086;5.090;2023-03-03T15:18:00;8.80;99.90
22940;DHT22;11636;52.086;5.090;2023-03-03T15:20:42;8.90;99.90
22940;DHT22;11636;52.086;5.090;2023-03-03T15:28:35;8.70;99.90
22940;DHT22;11636;52.086;5.090;2023-03-03T15:42:35;8.40;99.90
22940;DHT22;11636;52.086;5.090;2023-03-03T15:48:26;8.30;99.90
22940;DHT22;11636;52.086;5.090;2023-03-03T16:02:15;7.80;99.90
22940;DHT22;11636;52.086;5.090;2023-03-03T16:13:22;7.80;99.90
22940;DHT22;11636;52.086;5.090;2023-03-03T16:16:05;7.70;99.90
22940;DHT22;11636;52.086;5.090;2023-03-03T16:30:10;7.40;99.90
22940;DHT22;11636;52.086;5.090;2023-03-03T16:32:50;7.40;99.90
22940;DHT22;11636;52.086;5.090;2023-03-03T16:35:32;7.30;99.90
22940;DHT22;11636;52.086;5.090;2023-03-03T16:39:13;7.30;99.90
22940;DHT22;11636;52.086;5.090;2023-03-03T16:41:26;7.20;99.90
22940;DHT22;11636;52.086;5.090;2023-03-03T16:46:48;7.00;99.90
22940;DHT22;11636;52.086;5.090;2023-03-03T16:49:38;6.90;99.90
22940;DHT22;11636;52.086;5.090;2023-03-03T16:52:28;6.80;99.90
22940;DHT22;11636;52.086;5.090;2023-03-03T16:55:04;6.80;99.90
22940;DHT22;11636;52.086;5.090;2023-03-03T17:00:49;6.80;99.90
22940;DHT22;11636;52.086;5.090;2023-03-03T17:09:26;6.80;99.90
22940;DHT22;11636;52.086;5.090;2023-03-03T17:12:18;6.80;99.90
22940;DHT22;11636;52.086;5.090;2023-03-03T17:20:54;6.80;99.90
22940;DHT22;11636;52.086;5.090;2023-03-03T17:28:55;6.80;99.90
22940;DHT22;11636;52.086;5.090;2023-03-03T17:40:21;6.70;99.90
22940;DHT22;11636;52.086;5.090;2023-03-03T17:43:20;6.70;99.90
22940;DHT22;11636;52.086;5.090;2023-03-03T17:45:58;6.80;99.90
22940;DHT22;11636;52.086;5.090;2023-03-03T17:54:22;6.70;99.90
22940;DHT22;11636;52.086;5.090;2023-03-03T17:56:57;6.70;99.90
22940;DHT22;11636;52.086;5.090;2023-03-03T18:20:45;6.70;99.90
22940;DHT22;11636;52.086;5.090;2023-03-03T18:23:28;6.70;99.90
22940;DHT22;11636;52.086;5.090;2023-03-03T18:26:01;6.60;99.90
22940;DHT22;11636;52.086;5.090;2023-03-03T18:28:46;6.60;99.90
22940;DHT22;11636;52.086;5.090;2023-03-03T18:31:24;6.60;99.90
22940;DHT22;11636;52.086;5.090;2023-03-03T18:34:24;6.60;99.90
22940;DHT22;11636;52.086;5.090;2023-03-03T18:37:46;6.60;99.90
22940;DHT22;11636;52.086;5.090;2023-03-03T18:39:49;6.60;99.90
22940;DHT22;11636;52.086;5.090;2023-03-03T18:42:44;6.50;99.90
22940;DHT22;11636;52.086;5.090;2023-03-03T18:48:09;6.50;99.90
22940;DHT22;11636;52.086;5.090;2023-03-03T18:50:45;6.50;99.90
22940;DHT22;11636;52.086;5.090;2023-03-03T18:53:14;6.40;99.90
22940;DHT22;11636;52.086;5.090;2023-03-03T18:55:46;6.40;99.90
22940;DHT22;11636;52.086;5.090;2023-03-03T18:58:22;6.40;99.90
22940;DHT22;11636;52.086;5.090;2023-03-03T19:01:02;6.40;99.90
22940;DHT22;11636;52.086;5.090;2023-03-03T19:03:55;6.30;99.90
22940;DHT22;11636;52.086;5.090;2023-03-03T19:09:11;6.40;99.90
22940;DHT22;11636;52.086;5.090;2023-03-03T19:11:51;6.40;99.90
22940;DHT22;11636;52.086;5.090;2023-03-03T19:20:11;6.30;99.90
22940;DHT22;11636;52.086;5.090;2023-03-03T19:25:29;6.30;99.90
22940;DHT22;11636;52.086;5.090;2023-03-03T19:31:08;6.30;99.90
22940;DHT22;11636;52.086;5.090;2023-03-03T19:33:54;6.30;99.90
22940;DHT22;11636;52.086;5.090;2023-03-03T19:36:49;6.30;99.90
22940;DHT22;11636;52.086;5.090;2023-03-03T19:56:17;6.30;99.90
22940;DHT22;11636;52.086;5.090;2023-03-03T19:59:06;6.30;99.90
22940;DHT22;11636;52.086;5.090;2023-03-03T20:07:36;6.30;99.90
22940;DHT22;11636;52.086;5.090;2023-03-03T20:10:45;6.30;99.90
22940;DHT22;11636;52.086;5.090;2023-03-03T20:16:37;6.30;99.90
22940;DHT22;11636;52.086;5.090;2023-03-03T20:19:43;6.30;99.90
22940;DHT22;11636;52.086;5.090;2023-03-03T20:33:48;6.30;99.90
22940;DHT22;11636;52.086;5.090;2023-03-03T20:39:12;6.30;99.90
22940;DHT22;11636;52.086;5.090;2023-03-03T20:42:30;6.30;99.90
22940;DHT22;11636;52.086;5.090;2023-03-03T20:53:34;6.30;99.90
22940;DHT22;11636;52.086;5.090;2023-03-03T20:56:07;6.30;99.90
22940;DHT22;11636;52.086;5.090;2023-03-03T20:58:57;6.30;99.90
22940;DHT22;11636;52.086;5.090;2023-03-03T21:01:39;6.30;99.90
22940;DHT22;11636;52.086;5.090;2023-03-03T21:04:25;6.30;99.90
22940;DHT22;11636;52.086;5.090;2023-03-03T21:06:52;6.30;99.90
22940;DHT22;11636;52.086;5.090;2023-03-03T21:12:00;6.30;99.90
22940;DHT22;11636;52.086;5.090;2023-03-03T21:14:34;6.30;99.90
22940;DHT22;11636;52.086;5.090;2023-03-03T21:17:28;6.30;99.90
22940;DHT22;11636;52.086;5.090;2023-03-03T21:20:23;6.30;99.90
22940;DHT22;11636;52.086;5.090;2023-03-03T21:22:51;6.30;99.90
22940;DHT22;11636;52.086;5.090;2023-03-03T21:31:03;6.30;99.90
22940;DHT22;11636;52.086;5.090;2023-03-03T21:38:52;6.30;99.90
22940;DHT22;11636;52.086;5.090;2023-03-03T21:41:26;6.30;99.90
22940;DHT22;11636;52.086;5.090;2023-03-03T21:43:53;6.30;99.90
22940;DHT22;11636;52.086;5.090;2023-03-03T21:46:27;6.30;99.90
22940;DHT22;11636;52.086;5.090;2023-03-03T21:48:54;6.30;99.90
22940;DHT22;11636;52.086;5.090;2023-03-03T21:51:27;6.30;99.90
22940;DHT22;11636;52.086;5.090;2023-03-03T21:53:54;6.30;99.90
22940;DHT22;11636;52.086;5.090;2023-03-03T21:56:35;6.30;99.90
22940;DHT22;11636;52.086;5.090;2023-03-03T21:59:03;6.30;99.90
22940;DHT22;11636;52.086;5.090;2023-03-03T22:01:36;6.30;99.90
22940;DHT22;11636;52.086;5.090;2023-03-03T22:04:04;6.30;99.90
22940;DHT22;11636;52.086;5.090;2023-03-03T22:06:37;6.30;99.90
22940;DHT22;11636;52.086;5.090;2023-03-03T22:09:05;6.20;99.90
22940;DHT22;11636;52.086;5.090;2023-03-03T22:11:38;6.30;99.90
22940;DHT22;11636;52.086;5.090;2023-03-03T22:14:06;6.30;99.90
22940;DHT22;11636;52.086;5.090;2023-03-03T22:16:39;6.20;99.90
22940;DHT22;11636;52.086;5.090;2023-03-03T22:19:07;6.30;99.90
22940;DHT22;11636;52.086;5.090;2023-03-03T22:21:43;6.30;99.90
22940;DHT22;11636;52.086;5.090;2023-03-03T22:24:18;6.30;99.90
22940;DHT22;11636;52.086;5.090;2023-03-03T22:26:51;6.30;99.90
22940;DHT22;11636;52.086;5.090;2023-03-03T22:29:18;6.30;99.90
22940;DHT22;11636;52.086;5.090;2023-03-03T22:31:54;6.30;99.90
22940;DHT22;11636;52.086;5.090;2023-03-03T22:34:27;6.30;99.90
22940;DHT22;11636;52.086;5.090;2023-03-03T22:37:00;6.20;99.90
22940;DHT22;11636;52.086;5.090;2023-03-03T22:39:33;6.20;99.90
22940;DHT22;11636;52.086;5.090;2023-03-03T22:42:01;6.20;99.90
22940;DHT22;11636;52.086;5.090;2023-03-03T22:44:34;6.30;99.90
22940;DHT22;11636;52.086;5.090;2023-03-03T22:47:14;6.20;99.90
22940;DHT22;11636;52.086;5.090;2023-03-03T22:49:41;6.20;99.90
22940;DHT22;11636;52.086;5.090;2023-03-03T22:52:14;6.20;99.90
22940;DHT22;11636;52.086;5.090;2023-03-03T22:54:47;6.20;99.90
22940;DHT22;11636;52.086;5.090;2023-03-03T22:57:14;6.20;99.90
22940;DHT22;11636;52.086;5.090;2023-03-03T22:59:47;6.20;99.90
22940;DHT22;11636;52.086;5.090;2023-03-03T23:02:15;6.20;99.90
22940;DHT22;11636;52.086;5.090;2023-03-03T23:04:53;6.20;99.90
22940;DHT22;11636;52.086;5.090;2023-03-03T23:07:30;6.20;99.90
22940;DHT22;11636;52.086;5.090;2023-03-03T23:10:06;6.10;99.90
22940;DHT22;11636;52.086;5.090;2023-03-03T23:12:35;6.20;99.90
22940;DHT22;11636;52.086;5.090;2023-03-03T23:15:17;6.20;99.90
22940;DHT22;11636;52.086;5.090;2023-03-03T23:17:52;6.20;99.90
22940;DHT22;11636;52.086;5.090;2023-03-03T23:20:21;6.20;99.90
22940;DHT22;11636;52.086;5.090;2023-03-03T23:23:02;6.20;99.90
22940;DHT22;11636;52.086;5.090;2023-03-03T23:25:35;6.20;99.90
22940;DHT22;11636;52.086;5.090;2023-03-03T23:28:09;6.20;99.90
22940;DHT22;11636;52.086;5.090;2023-03-03T23:30:36;6.20;99.90
22940;DHT22;11636;52.086;5.090;2023-03-03T23:33:09;6.20;99.90